Time;durP1;ratioP1;P1;durP2;ratioP2;P2;SDS_P1;SDS_P2;PMS_P1;PMS_P2;Temp;Humidity;BMP_temperature;BMP_pressure;BME280_temperature;BME280_humidity;BME280_pressure;Samples;Min_cycle;Max_cycle;Signal;HPM_P1;HPM_P2
2022/03/12 00:02:16;;;;;;;10.67;5.47;;;7.20;59.30;;;;;;5052768;28;20181;-77
2022/03/12 00:04:45;;;;;;;13.03;5.73;;;7.20;59.30;;;;;;5052609;28;20202;-76
2022/03/12 00:07:12;;;;;;;10.33;5.27;;;7.10;60.40;;;;;;5052368;28;20251;-76
2022/03/12 00:09:38;;;;;;;14.13;5.00;;;7.10;59.70;;;;;;5051837;28;20196;-76
2022/03/12 00:12:05;;;;;;;11.53;5.63;;;7.00;59.30;;;;;;5052153;28;20174;-76
2022/03/12 00:14:33;;;;;;;13.00;5.50;;;7.00;60.90;;;;;;5050247;28;20178;-76
2022/03/12 00:16:59;;;;;;;18.30;5.80;;;6.90;60.00;;;;;;5052293;28;20177;-77
2022/03/12 00:19:24;;;;;;;12.50;5.90;;;6.80;60.20;;;;;;5051958;28;20255;-76
2022/03/12 00:21:50;;;;;;;14.43;5.77;;;6.80;60.60;;;;;;5051894;28;20182;-75
2022/03/12 00:24:18;;;;;;;12.03;5.40;;;6.80;60.40;;;;;;5051624;28;20711;-74
2022/03/12 00:26:45;;;;;;;12.60;5.20;;;6.80;61.80;;;;;;5051295;28;21242;-74
2022/03/12 00:29:14;;;;;;;11.53;5.90;;;6.70;61.00;;;;;;5051593;28;20201;-75
2022/03/12 00:31:42;;;;;;;11.00;5.53;;;6.70;61.90;;;;;;5051483;28;20165;-75
2022/03/12 00:34:08;;;;;;;14.03;5.67;;;6.60;61.20;;;;;;5051652;28;20293;-75
2022/03/12 00:36:34;;;;;;;12.03;5.20;;;6.50;62.00;;;;;;5051265;28;20172;-74
2022/03/12 00:39:00;;;;;;;10.87;5.23;;;6.60;61.10;;;;;;5051320;28;20658;-74
2022/03/12 00:41:29;;;;;;;11.13;6.00;;;6.50;61.10;;;;;;5051261;28;20285;-74
2022/03/12 00:43:55;;;;;;;10.07;5.40;;;6.40;62.80;;;;;;5051458;28;20203;-74
2022/03/12 00:46:22;;;;;;;11.33;5.60;;;6.50;61.60;;;;;;5051345;28;20171;-74
2022/03/12 00:48:48;;;;;;;11.67;5.73;;;6.50;60.90;;;;;;5051330;28;20272;-74
2022/03/12 00:51:13;;;;;;;10.43;5.27;;;6.40;62.00;;;;;;5051122;28;20182;-74
2022/03/12 00:53:40;;;;;;;12.67;5.53;;;6.40;62.30;;;;;;5051278;28;20191;-73
2022/03/12 00:56:07;;;;;;;11.53;5.10;;;6.30;62.10;;;;;;5051123;28;20704;-75
2022/03/12 00:58:35;;;;;;;9.93;5.37;;;6.30;62.50;;;;;;5051024;28;20193;-74
2022/03/12 01:01:02;;;;;;;13.80;5.90;;;6.20;61.90;;;;;;5049078;28;20181;-75
2022/03/12 01:03:27;;;;;;;10.80;5.07;;;6.20;61.80;;;;;;5051008;28;20172;-76
2022/03/12 01:05:59;;;;;;;12.37;5.50;;;6.20;63.20;;;;;;5050995;28;20176;-75
2022/03/12 01:08:28;;;;;;;10.90;5.47;;;6.20;61.50;;;;;;5049307;28;20194;-75
2022/03/12 01:10:58;;;;;;;11.10;5.33;;;6.20;62.00;;;;;;5050664;28;20306;-74
2022/03/12 01:13:24;;;;;;;8.40;5.30;;;6.20;61.50;;;;;;5049116;28;20162;-74
2022/03/12 01:15:50;;;;;;;9.50;4.97;;;6.20;61.90;;;;;;5050832;28;20780;-74
2022/03/12 01:18:19;;;;;;;9.43;5.03;;;6.20;61.80;;;;;;5050864;28;20280;-74
2022/03/12 01:20:45;;;;;;;9.03;5.30;;;6.20;61.40;;;;;;5050865;28;20196;-74
2022/03/12 01:23:13;;;;;;;11.97;5.47;;;6.10;62.50;;;;;;5048693;28;20174;-74
2022/03/12 01:25:40;;;;;;;8.30;4.83;;;6.10;63.00;;;;;;5050351;28;20200;-74
2022/03/12 01:28:11;;;;;;;15.50;6.07;;;5.90;62.40;;;;;;5050638;28;20283;-74
2022/03/12 01:30:37;;;;;;;12.67;5.43;;;5.90;63.00;;;;;;5050624;28;20255;-74
2022/03/12 01:33:04;;;;;;;8.47;4.57;;;5.90;62.70;;;;;;5050320;28;20199;-74
2022/03/12 01:35:30;;;;;;;8.30;4.73;;;6.00;62.00;;;;;;5050417;28;20214;-74
2022/03/12 01:37:56;;;;;;;15.93;5.77;;;5.90;62.70;;;;;;5050147;28;20193;-74
2022/03/12 01:40:22;;;;;;;14.50;5.37;;;5.80;63.20;;;;;;5050324;28;20185;-74
2022/03/12 01:42:48;;;;;;;10.80;4.93;;;5.90;62.80;;;;;;5050269;28;20173;-74
2022/03/12 01:45:23;;;;;;;9.00;5.00;;;5.80;62.20;;;;;;5051548;28;20187;-74
2022/03/12 01:47:51;;;;;;;12.90;5.30;;;5.80;63.80;;;;;;5049751;28;20247;-73
2022/03/12 01:50:19;;;;;;;9.83;4.73;;;5.80;63.00;;;;;;5050303;28;20172;-74
2022/03/12 01:52:45;;;;;;;10.33;4.90;;;5.80;62.90;;;;;;5050231;28;20207;-74
2022/03/12 01:55:10;;;;;;;12.47;5.70;;;5.80;63.00;;;;;;5050251;28;20632;-73
2022/03/12 01:57:36;;;;;;;11.63;5.10;;;5.70;62.30;;;;;;5050254;28;20178;-73
2022/03/12 02:00:03;;;;;;;12.50;5.17;;;5.80;63.00;;;;;;5050140;28;20199;-74
2022/03/12 02:02:29;;;;;;;10.97;5.57;;;5.70;62.70;;;;;;5050006;28;20179;-73
2022/03/12 02:04:55;;;;;;;12.17;4.97;;;5.80;62.60;;;;;;5050199;28;20224;-75
2022/03/12 02:07:23;;;;;;;14.30;5.57;;;5.60;64.00;;;;;;5050254;28;20180;-75
2022/03/12 02:09:50;;;;;;;9.03;5.10;;;5.60;62.40;;;;;;5050261;28;20221;-75
2022/03/12 02:12:16;;;;;;;11.90;5.00;;;5.70;62.40;;;;;;5049581;28;20173;-74
2022/03/12 02:14:41;;;;;;;12.87;5.50;;;5.70;62.70;;;;;;5047961;28;20714;-74
2022/03/12 02:17:11;;;;;;;10.83;5.13;;;5.70;62.40;;;;;;5050039;28;20208;-74
2022/03/12 02:19:39;;;;;;;8.23;4.83;;;5.60;62.60;;;;;;5049134;28;20199;-76
2022/03/12 02:22:13;;;;;;;9.43;5.00;;;5.60;63.40;;;;;;5049682;28;20272;-76
2022/03/12 02:24:39;;;;;;;9.13;4.50;;;5.60;63.30;;;;;;5049831;28;20199;-75
2022/03/12 02:27:08;;;;;;;8.97;4.97;;;5.60;62.70;;;;;;5079125;23;20231;-87
2022/03/12 02:29:35;;;;;;;11.50;4.80;;;5.60;62.50;;;;;;5068883;28;20168;-87
2022/03/12 02:32:09;;;;;;;11.43;5.30;;;5.60;62.80;;;;;;5060787;28;20571;-87
2022/03/12 02:34:49;;;;;;;12.87;4.87;;;5.60;62.60;;;;;;5060436;28;20173;-86
2022/03/12 02:37:21;;;;;;;13.70;5.30;;;5.60;62.50;;;;;;5059745;28;20176;-86
2022/03/12 02:39:47;;;;;;;9.17;4.50;;;5.60;63.90;;;;;;5062315;28;20240;-86
2022/03/12 02:42:13;;;;;;;9.50;5.37;;;5.60;63.70;;;;;;5061581;22;20220;-73
2022/03/12 02:44:39;;;;;;;10.63;4.93;;;5.60;63.40;;;;;;5049710;28;20200;-73
2022/03/12 02:47:15;;;;;;;8.77;4.70;;;5.60;63.00;;;;;;5049732;28;20219;-73
2022/03/12 02:50:03;;;;;;;9.33;4.83;;;5.60;62.80;;;;;;5047699;28;20185;-74
2022/03/12 02:52:31;;;;;;;22.90;5.17;;;5.60;62.50;;;;;;5049052;28;20173;-73
2022/03/12 02:54:59;;;;;;;12.17;5.27;;;5.60;63.40;;;;;;5049624;28;20182;-74
2022/03/12 02:57:26;;;;;;;12.70;4.43;;;5.60;63.80;;;;;;5050751;28;20201;-75
2022/03/12 02:59:53;;;;;;;12.33;5.00;;;5.60;63.60;;;;;;5049602;28;20176;-74
2022/03/12 03:02:38;;;;;;;9.73;4.80;;;5.60;63.60;;;;;;5049133;28;20204;-74
2022/03/12 03:05:16;;;;;;;8.53;5.33;;;5.60;63.40;;;;;;5049203;28;20271;-73
2022/03/12 03:07:45;;;;;;;9.70;4.90;;;5.60;63.50;;;;;;5049688;28;20169;-74
2022/03/12 03:10:30;;;;;;;11.87;4.70;;;5.60;62.80;;;;;;5049378;28;20170;-74
2022/03/12 03:12:58;;;;;;;9.17;4.90;;;5.60;62.90;;;;;;5047975;28;20511;-74
2022/03/12 03:15:25;;;;;;;9.07;4.37;;;5.60;62.70;;;;;;5048942;28;20208;-74
2022/03/12 03:17:51;;;;;;;10.87;5.10;;;5.60;63.20;;;;;;5047236;28;20198;-74
2022/03/12 03:20:17;;;;;;;12.57;4.67;;;5.60;63.60;;;;;;5049603;28;20558;-74
2022/03/12 03:22:43;;;;;;;8.40;4.63;;;5.60;62.90;;;;;;5049202;28;20176;-73
2022/03/12 03:25:09;;;;;;;11.03;4.83;;;5.70;62.30;;;;;;5049443;28;20186;-74
2022/03/12 03:27:34;;;;;;;9.47;4.27;;;5.60;62.60;;;;;;5049193;28;20177;-74
2022/03/12 03:30:00;;;;;;;9.13;5.00;;;5.60;62.90;;;;;;5051161;28;20258;-73
2022/03/12 03:32:26;;;;;;;10.03;4.77;;;5.60;62.80;;;;;;5048116;28;20517;-74
2022/03/12 03:34:51;;;;;;;10.17;4.80;;;5.60;62.80;;;;;;5052817;28;20172;-73
2022/03/12 03:37:17;;;;;;;11.60;4.73;;;5.60;62.50;;;;;;5052666;28;20196;-73
2022/03/12 03:39:43;;;;;;;10.70;4.83;;;5.60;62.90;;;;;;5050792;28;20192;-74
2022/03/12 03:42:08;;;;;;;10.83;4.90;;;5.60;63.30;;;;;;5052227;28;20198;-74
2022/03/12 03:44:34;;;;;;;9.30;4.83;;;5.70;64.00;;;;;;5052894;28;20662;-75
2022/03/12 03:47:00;;;;;;;10.17;4.90;;;5.60;63.00;;;;;;5052625;28;20177;-75
2022/03/12 03:49:25;;;;;;;8.67;4.70;;;5.60;64.20;;;;;;5052645;28;20191;-75
2022/03/12 03:51:53;;;;;;;11.90;5.30;;;5.70;63.60;;;;;;5052045;28;20194;-74
2022/03/12 03:54:18;;;;;;;10.77;4.53;;;5.70;63.80;;;;;;5052477;28;20267;-74
2022/03/12 03:56:44;;;;;;;9.53;4.70;;;5.70;64.10;;;;;;5052446;28;20205;-74
2022/03/12 03:59:10;;;;;;;10.43;5.33;;;5.60;64.10;;;;;;5052468;28;20270;-75
2022/03/12 04:01:42;;;;;;;19.90;5.10;;;5.70;63.30;;;;;;5052152;28;20174;-75
2022/03/12 04:04:12;;;;;;;9.70;4.97;;;5.70;63.70;;;;;;5052220;28;20193;-75
2022/03/12 04:06:38;;;;;;;8.83;4.87;;;5.70;63.10;;;;;;5052116;28;20173;-75
2022/03/12 04:09:04;;;;;;;10.43;5.20;;;5.70;63.30;;;;;;5052101;28;20192;-75
2022/03/12 04:11:29;;;;;;;8.83;4.67;;;5.70;64.80;;;;;;5051749;28;20703;-74
2022/03/12 04:13:57;;;;;;;10.97;5.20;;;5.70;63.00;;;;;;5052122;28;20201;-75
2022/03/12 04:16:23;;;;;;;8.50;5.20;;;5.70;63.40;;;;;;5052043;28;20187;-74
2022/03/12 04:18:50;;;;;;;10.33;5.07;;;5.70;64.20;;;;;;5053299;28;20196;-75
2022/03/12 04:21:17;;;;;;;10.57;4.90;;;5.70;63.50;;;;;;5051793;28;20675;-75
2022/03/12 04:23:45;;;;;;;10.17;5.37;;;5.60;64.00;;;;;;5051833;28;20176;-75
2022/03/12 04:26:12;;;;;;;12.63;5.20;;;5.70;63.40;;;;;;5051710;28;20180;-74
2022/03/12 04:28:39;;;;;;;10.17;4.57;;;5.70;63.90;;;;;;5051698;28;20665;-74
2022/03/12 04:31:06;;;;;;;10.83;5.43;;;5.70;64.00;;;;;;5053244;28;20261;-74
2022/03/12 04:33:33;;;;;;;9.00;4.67;;;5.60;64.90;;;;;;5051302;28;20263;-74
2022/03/12 04:36:00;;;;;;;12.17;5.47;;;5.60;63.20;;;;;;5052244;28;20195;-74
2022/03/12 04:38:27;;;;;;;13.57;5.17;;;5.70;64.60;;;;;;5051277;28;20194;-74
2022/03/12 04:40:56;;;;;;;9.03;5.27;;;5.60;64.30;;;;;;5053007;28;20165;-74
2022/03/12 04:43:29;;;;;;;11.93;5.60;;;5.70;64.60;;;;;;5049441;28;20269;-74
2022/03/12 04:45:55;;;;;;;10.40;4.67;;;5.70;63.70;;;;;;5049989;28;20676;-75
2022/03/12 04:48:22;;;;;;;11.63;5.23;;;5.70;64.60;;;;;;5051795;28;20188;-74
2022/03/12 04:50:49;;;;;;;10.33;4.83;;;5.80;63.30;;;;;;5051507;28;20176;-74
2022/03/12 04:53:15;;;;;;;10.60;5.33;;;5.70;64.30;;;;;;5050691;28;20175;-73
2022/03/12 04:55:44;;;;;;;10.27;5.37;;;5.80;63.90;;;;;;5051836;28;20180;-74
2022/03/12 04:58:10;;;;;;;8.33;5.17;;;5.80;63.70;;;;;;5049685;28;20245;-73
2022/03/12 05:00:38;;;;;;;9.93;5.03;;;5.80;63.90;;;;;;5051322;28;20180;-73
2022/03/12 05:03:14;;;;;;;13.40;5.13;;;5.80;63.60;;;;;;5051473;28;20218;-73
2022/03/12 05:05:43;;;;;;;10.23;5.20;;;5.80;63.70;;;;;;5051141;28;20237;-73
2022/03/12 05:08:19;;;;;;;8.33;4.57;;;5.80;64.20;;;;;;5051006;28;20698;-74
2022/03/12 05:10:51;;;;;;;9.53;5.03;;;5.70;64.30;;;;;;5051014;28;20587;-73
2022/03/12 05:13:27;;;;;;;10.37;5.43;;;5.70;64.60;;;;;;5049024;28;20178;-73
2022/03/12 05:15:55;;;;;;;10.40;5.37;;;5.70;64.30;;;;;;5049671;28;20167;-73
2022/03/12 05:18:23;;;;;;;9.63;4.90;;;5.60;65.00;;;;;;5050975;28;20199;-73
2022/03/12 05:20:49;;;;;;;14.00;5.20;;;5.60;64.70;;;;;;5051032;28;20173;-73
2022/03/12 05:23:16;;;;;;;14.00;5.70;;;5.60;65.20;;;;;;5050596;28;20170;-73
2022/03/12 05:25:44;;;;;;;11.17;5.03;;;5.60;64.90;;;;;;5050411;28;20192;-74
2022/03/12 05:28:15;;;;;;;9.03;4.90;;;5.60;66.00;;;;;;5050698;28;20200;-73
2022/03/12 05:30:45;;;;;;;15.20;5.30;;;5.70;64.50;;;;;;5050647;28;20243;-73
2022/03/12 05:33:12;;;;;;;13.13;5.20;;;5.60;65.50;;;;;;5051174;28;20184;-73
2022/03/12 05:35:41;;;;;;;10.67;6.37;;;5.60;64.90;;;;;;5050614;28;20177;-74
2022/03/12 05:38:08;;;;;;;11.60;4.77;;;5.70;65.00;;;;;;5048302;28;20200;-74
2022/03/12 05:40:39;;;;;;;9.70;4.80;;;5.60;66.10;;;;;;5050624;28;20173;-73
2022/03/12 05:43:15;;;;;;;15.53;5.53;;;5.60;65.30;;;;;;5050416;28;20594;-74
2022/03/12 05:45:45;;;;;;;9.23;5.10;;;5.60;66.20;;;;;;5050439;28;20199;-73
2022/03/12 05:48:13;;;;;;;10.87;5.70;;;5.60;65.90;;;;;;5048893;28;20277;-74
2022/03/12 05:50:40;;;;;;;11.73;5.30;;;5.60;65.40;;;;;;5048521;28;20169;-74
2022/03/12 05:53:10;;;;;;;10.73;5.57;;;5.60;66.70;;;;;;5049543;28;20265;-74
2022/03/12 05:55:40;;;;;;;11.53;4.90;;;5.60;65.90;;;;;;5050318;28;20166;-74
2022/03/12 05:58:07;;;;;;;11.27;5.57;;;5.60;67.30;;;;;;5050216;28;20194;-73
2022/03/12 06:00:33;;;;;;;10.53;5.30;;;5.70;66.30;;;;;;5050225;28;20168;-73
2022/03/12 06:03:00;;;;;;;11.13;5.37;;;5.80;66.10;;;;;;5049939;28;20170;-74
2022/03/12 06:05:26;;;;;;;11.47;5.33;;;5.80;66.70;;;;;;5050140;28;20199;-74
2022/03/12 06:07:53;;;;;;;10.57;4.87;;;5.90;66.00;;;;;;5051251;28;20188;-74
2022/03/12 06:10:21;;;;;;;10.50;5.10;;;5.90;65.70;;;;;;5050068;28;20253;-74
2022/03/12 06:12:48;;;;;;;12.60;5.17;;;5.90;66.90;;;;;;5049860;28;20167;-74
2022/03/12 06:15:16;;;;;;;11.10;5.57;;;6.00;66.10;;;;;;5049983;28;20257;-74
2022/03/12 06:17:43;;;;;;;12.97;5.57;;;6.00;66.30;;;;;;5050064;28;20172;-74
2022/03/12 06:20:10;;;;;;;14.63;5.23;;;6.10;66.00;;;;;;5050050;28;20187;-74
2022/03/12 06:22:37;;;;;;;12.27;5.57;;;6.10;65.90;;;;;;5049720;28;20177;-74
2022/03/12 06:25:05;;;;;;;15.00;5.13;;;6.10;67.20;;;;;;5050083;28;20279;-74
2022/03/12 06:27:31;;;;;;;11.00;5.57;;;6.10;66.70;;;;;;5049571;28;20672;-74
2022/03/12 06:29:57;;;;;;;11.17;5.80;;;6.10;66.50;;;;;;5049986;28;20436;-74
2022/03/12 06:32:23;;;;;;;12.50;5.60;;;6.20;66.40;;;;;;5049309;28;20180;-74
2022/03/12 06:34:49;;;;;;;11.10;5.87;;;6.30;66.00;;;;;;5050117;28;20888;-75
2022/03/12 06:37:15;;;;;;;9.20;5.07;;;6.40;65.60;;;;;;5050615;28;20232;-74
2022/03/12 06:39:41;;;;;;;9.77;5.47;;;6.50;66.10;;;;;;5049693;28;20200;-75
2022/03/12 06:42:07;;;;;;;10.67;5.43;;;6.60;65.50;;;;;;5049525;28;20198;-74
2022/03/12 06:44:36;;;;;;;9.33;5.20;;;6.80;65.10;;;;;;5049783;28;20190;-74
2022/03/12 06:47:08;;;;;;;13.73;5.73;;;6.90;64.80;;;;;;5049912;28;20252;-73
2022/03/12 06:49:35;;;;;;;11.00;5.43;;;6.90;65.10;;;;;;5048558;28;20196;-74
2022/03/12 06:52:02;;;;;;;11.63;5.70;;;7.10;64.70;;;;;;5048993;28;20190;-73
2022/03/12 06:54:28;;;;;;;13.10;5.47;;;7.40;64.10;;;;;;5049501;28;20186;-73
2022/03/12 06:56:54;;;;;;;11.17;5.33;;;7.40;64.20;;;;;;5049732;28;20191;-73
2022/03/12 06:59:20;;;;;;;11.07;5.50;;;7.50;63.90;;;;;;5049603;28;20195;-73
2022/03/12 07:01:46;;;;;;;14.23;6.70;;;8.00;63.60;;;;;;5049431;28;20174;-73
2022/03/12 07:04:11;;;;;;;9.43;5.97;;;9.20;60.60;;;;;;5049571;28;20226;-74
2022/03/12 07:06:37;;;;;;;11.10;5.20;;;8.70;61.20;;;;;;5052458;28;20219;-73
2022/03/12 07:09:04;;;;;;;11.83;6.00;;;8.40;62.00;;;;;;5053228;28;20194;-73
2022/03/12 07:11:31;;;;;;;11.03;5.60;;;8.70;61.20;;;;;;5053362;28;20597;-73
2022/03/12 07:13:58;;;;;;;13.90;6.03;;;9.30;60.50;;;;;;5053145;28;20618;-74
2022/03/12 07:16:24;;;;;;;15.97;6.20;;;9.90;60.40;;;;;;5051352;28;20232;-74
2022/03/12 07:18:50;;;;;;;13.33;6.20;;;10.50;59.50;;;;;;5054306;28;20647;-74
2022/03/12 07:21:15;;;;;;;12.03;6.13;;;10.00;59.70;;;;;;5054287;28;20169;-76
2022/03/12 07:23:41;;;;;;;11.20;6.43;;;10.00;60.80;;;;;;5053371;28;20176;-77
2022/03/12 07:26:08;;;;;;;18.77;6.10;;;11.20;58.10;;;;;;5052664;28;21464;-76
2022/03/12 07:28:34;;;;;;;15.33;6.43;;;11.50;56.70;;;;;;5053814;28;20246;-82
2022/03/12 07:31:00;;;;;;;14.57;6.80;;;11.30;57.40;;;;;;5055240;28;20185;-78
2022/03/12 07:33:26;;;;;;;12.67;5.90;;;11.70;57.10;;;;;;5053988;28;20170;-77
2022/03/12 07:35:52;;;;;;;13.93;6.60;;;11.50;56.80;;;;;;5053631;28;20184;-77
2022/03/12 07:38:18;;;;;;;11.60;6.73;;;12.10;56.80;;;;;;5054127;28;20209;-78
2022/03/12 07:40:43;;;;;;;10.67;6.50;;;12.40;56.10;;;;;;5054605;28;20169;-78
2022/03/12 07:43:09;;;;;;;16.07;6.60;;;12.80;55.20;;;;;;5054829;28;20196;-77
2022/03/12 07:45:35;;;;;;;14.10;6.63;;;12.60;56.00;;;;;;5055070;28;20575;-78
2022/03/12 07:48:01;;;;;;;13.53;6.43;;;11.80;57.50;;;;;;5054952;28;20196;-78
2022/03/12 07:50:27;;;;;;;15.03;6.80;;;12.30;56.50;;;;;;5054399;28;20181;-79
2022/03/12 07:52:54;;;;;;;17.00;6.97;;;13.60;55.40;;;;;;5055760;28;20222;-79
2022/03/12 07:55:19;;;;;;;13.63;7.03;;;14.00;53.40;;;;;;5056046;28;20602;-78
2022/03/12 07:57:46;;;;;;;11.10;7.23;;;13.50;54.40;;;;;;5056432;28;20201;-79
2022/03/12 08:00:14;;;;;;;12.80;6.37;;;13.20;55.80;;;;;;5054989;28;20181;-79
2022/03/12 08:02:45;;;;;;;11.00;6.80;;;12.50;57.60;;;;;;5054979;28;20181;-78
2022/03/12 08:05:12;;;;;;;8.70;6.17;;;13.20;55.10;;;;;;5056485;28;20304;-78
2022/03/12 08:07:39;;;;;;;13.27;6.50;;;14.10;53.70;;;;;;5057997;28;20170;-79
2022/03/12 08:10:06;;;;;;;14.87;6.97;;;13.20;55.50;;;;;;5057852;28;20203;-78
2022/03/12 08:12:32;;;;;;;10.07;6.43;;;12.90;56.20;;;;;;5055627;28;20177;-78
2022/03/12 08:14:59;;;;;;;11.87;6.37;;;12.30;56.80;;;;;;5056183;28;20177;-78
2022/03/12 08:17:25;;;;;;;11.80;7.33;;;11.70;58.60;;;;;;5054643;28;20653;-78
2022/03/12 08:19:51;;;;;;;12.43;6.20;;;11.80;59.30;;;;;;5056980;28;20245;-79
2022/03/12 08:22:17;;;;;;;13.03;6.73;;;11.70;58.90;;;;;;5057458;28;20182;-79
2022/03/12 08:24:43;;;;;;;12.27;6.47;;;11.10;59.90;;;;;;5057392;28;20220;-78
2022/03/12 08:27:10;;;;;;;20.60;7.07;;;11.20;60.00;;;;;;5054379;28;20237;-78
2022/03/12 08:29:36;;;;;;;17.43;7.20;;;11.60;60.00;;;;;;5053109;28;20624;-78
2022/03/12 08:32:03;;;;;;;18.13;6.13;;;11.60;60.00;;;;;;5053090;28;20185;-78
2022/03/12 08:34:28;;;;;;;12.97;7.13;;;11.90;60.20;;;;;;5053377;28;20226;-78
2022/03/12 08:36:54;;;;;;;12.83;6.80;;;12.60;59.00;;;;;;5053412;28;20212;-78
2022/03/12 08:39:20;;;;;;;11.63;6.70;;;13.80;57.20;;;;;;5054362;28;20201;-79
2022/03/12 08:41:46;;;;;;;14.40;6.93;;;13.70;58.20;;;;;;5053911;28;20197;-78
2022/03/12 08:44:12;;;;;;;11.00;6.70;;;12.90;58.10;;;;;;5053242;28;20209;-78
2022/03/12 08:46:42;;;;;;;11.63;6.60;;;12.30;60.20;;;;;;5052948;28;20711;-77
2022/03/12 08:49:08;;;;;;;14.27;7.03;;;12.60;60.10;;;;;;5051462;28;20696;-78
2022/03/12 08:51:35;;;;;;;14.17;6.67;;;12.70;60.60;;;;;;5051251;28;20177;-78
2022/03/12 08:54:02;;;;;;;13.70;7.00;;;13.20;61.40;;;;;;5051248;28;20212;-78
2022/03/12 08:56:27;;;;;;;11.53;6.77;;;12.50;62.10;;;;;;5051576;28;20181;-78
2022/03/12 08:58:54;;;;;;;15.83;6.83;;;12.40;62.10;;;;;;5051093;28;20728;-78
2022/03/12 09:01:21;;;;;;;15.00;7.23;;;12.70;63.10;;;;;;5051332;28;20169;-78
2022/03/12 09:03:47;;;;;;;11.23;6.87;;;12.50;63.80;;;;;;5053474;28;20173;-77
2022/03/12 09:06:13;;;;;;;11.97;6.80;;;12.50;64.60;;;;;;5054301;28;20186;-78
2022/03/12 09:08:38;;;;;;;8.80;6.10;;;12.80;63.60;;;;;;5054618;28;20197;-78
2022/03/12 09:11:05;;;;;;;10.93;6.73;;;12.80;65.50;;;;;;5055149;28;20180;-79
2022/03/12 09:13:30;;;;;;;11.20;6.43;;;13.20;64.90;;;;;;5055430;28;20177;-77
2022/03/12 09:15:56;;;;;;;16.90;6.80;;;13.30;65.00;;;;;;5054582;28;20178;-78
2022/03/12 09:18:23;;;;;;;15.33;7.37;;;12.90;66.00;;;;;;5054672;28;20201;-78
2022/03/12 09:20:49;;;;;;;12.97;6.40;;;13.40;66.60;;;;;;5054258;28;20205;-78
2022/03/12 09:23:17;;;;;;;9.57;6.23;;;13.20;66.40;;;;;;5053750;28;20213;-77
2022/03/12 09:25:43;;;;;;;12.70;6.80;;;13.00;66.90;;;;;;5054190;28;20216;-78
2022/03/12 09:28:10;;;;;;;12.83;6.43;;;13.20;67.10;;;;;;5053637;28;20250;-79
2022/03/12 09:30:37;;;;;;;11.40;6.40;;;13.30;67.60;;;;;;5054256;28;20177;-78
2022/03/12 09:33:03;;;;;;;10.47;6.67;;;13.70;66.80;;;;;;5054164;28;20220;-78
2022/03/12 09:35:29;;;;;;;9.87;6.17;;;14.20;65.80;;;;;;5054933;28;20177;-78
2022/03/12 09:37:55;;;;;;;9.87;6.37;;;13.70;66.00;;;;;;5053580;28;20197;-78
2022/03/12 09:40:22;;;;;;;11.80;6.40;;;14.00;66.80;;;;;;5054183;28;20691;-78
2022/03/12 09:42:48;;;;;;;12.17;6.10;;;13.80;67.60;;;;;;5053834;28;20200;-78
2022/03/12 09:45:14;;;;;;;9.47;5.93;;;13.90;68.10;;;;;;5054192;28;20209;-78
2022/03/12 09:47:41;;;;;;;13.93;7.03;;;14.60;66.20;;;;;;5053864;28;20229;-78
2022/03/12 09:50:07;;;;;;;12.03;6.30;;;14.10;66.50;;;;;;5054090;28;20181;-79
2022/03/12 09:52:33;;;;;;;10.97;6.10;;;14.30;66.20;;;;;;5054717;28;20174;-77
2022/03/12 09:54:59;;;;;;;17.67;6.70;;;14.10;66.40;;;;;;5051748;28;20234;-78
2022/03/12 09:57:24;;;;;;;13.70;6.37;;;13.20;68.60;;;;;;5051376;28;20180;-78
2022/03/12 09:59:50;;;;;;;15.30;6.80;;;13.30;69.30;;;;;;5051444;28;20212;-78
2022/03/12 10:02:16;;;;;;;14.27;6.53;;;13.30;69.50;;;;;;5052019;28;20637;-77
2022/03/12 10:04:44;;;;;;;13.40;7.00;;;13.40;69.00;;;;;;5051118;28;20204;-77
2022/03/12 10:07:10;;;;;;;12.13;6.70;;;13.60;69.00;;;;;;5050623;28;20178;-78
2022/03/12 10:09:37;;;;;;;12.63;6.83;;;13.60;69.50;;;;;;5050945;28;20205;-78
2022/03/12 10:12:05;;;;;;;11.13;6.53;;;13.50;69.30;;;;;;5050865;28;20173;-78
2022/03/12 10:14:31;;;;;;;15.47;6.50;;;14.10;68.20;;;;;;5051391;28;20181;-78
2022/03/12 10:17:00;;;;;;;12.17;7.00;;;14.50;66.70;;;;;;5051037;28;20190;-79
2022/03/12 10:19:26;;;;;;;12.63;6.03;;;14.20;69.30;;;;;;5051853;28;20696;-79
2022/03/12 10:21:53;;;;;;;13.37;7.87;;;14.20;68.60;;;;;;5050585;28;20181;-77
2022/03/12 10:24:19;;;;;;;13.97;8.60;;;14.00;69.60;;;;;;5050865;28;20280;-78
2022/03/12 10:26:46;;;;;;;11.40;6.70;;;14.40;69.50;;;;;;5050947;28;20330;-79
2022/03/12 10:29:11;;;;;;;13.10;6.97;;;14.20;69.40;;;;;;5051057;28;20253;-78
2022/03/12 10:31:38;;;;;;;11.73;6.60;;;14.90;68.20;;;;;;5050954;28;20181;-79
2022/03/12 10:34:23;;;;;;;15.33;6.87;;;14.60;70.00;;;;;;5051070;28;20195;-77
2022/03/12 10:36:54;;;;;;;13.20;6.77;;;15.10;69.20;;;;;;5050774;28;20186;-79
2022/03/12 10:39:31;;;;;;;14.47;6.43;;;15.60;69.80;;;;;;5050862;28;20232;-78
2022/03/12 10:42:05;;;;;;;10.83;6.13;;;15.50;68.20;;;;;;5055284;28;20195;-78
2022/03/12 10:44:39;;;;;;;10.47;5.97;;;15.50;70.10;;;;;;5054867;28;20193;-78
2022/03/12 10:47:22;;;;;;;11.47;6.73;;;15.90;69.10;;;;;;5055264;28;20180;-78
2022/03/12 10:50:07;;;;;;;11.17;7.20;;;15.50;69.00;;;;;;5054842;28;20283;-79
2022/03/12 10:52:34;;;;;;;13.17;6.63;;;15.50;70.50;;;;;;5054557;28;20208;-78
2022/03/12 10:55:15;;;;;;;10.70;6.13;;;15.90;69.50;;;;;;5055192;28;20684;-78
2022/03/12 10:58:13;;;;;;;9.37;6.00;;;15.70;69.10;;;;;;5055753;28;20181;-77
2022/03/12 11:00:45;;;;;;;10.07;6.37;;;15.30;71.30;;;;;;5054319;28;20177;-79
2022/03/12 11:03:14;;;;;;;15.53;6.70;;;16.30;69.60;;;;;;5056468;28;20177;-79
2022/03/12 11:05:42;;;;;;;11.07;6.47;;;15.70;69.70;;;;;;5054644;28;20735;-78
2022/03/12 11:08:10;;;;;;;10.37;6.57;;;16.00;70.60;;;;;;5054206;28;20193;-78
2022/03/12 11:10:42;;;;;;;11.63;6.10;;;16.50;69.30;;;;;;5056778;28;20181;-79
2022/03/12 11:13:08;;;;;;;14.53;6.63;;;16.80;69.50;;;;;;5057798;28;20177;-79
2022/03/12 11:15:34;;;;;;;13.03;6.40;;;16.90;68.00;;;;;;5054821;28;20184;-77
2022/03/12 11:18:06;;;;;;;10.97;6.83;;;16.30;69.20;;;;;;5054823;28;20201;-78
2022/03/12 11:20:36;;;;;;;12.30;7.10;;;16.10;69.40;;;;;;5056257;28;20177;-77
2022/03/12 11:23:07;;;;;;;11.93;6.53;;;15.60;70.40;;;;;;5055239;28;20174;-78
2022/03/12 11:25:36;;;;;;;11.53;7.13;;;15.20;70.90;;;;;;5055976;28;20209;-78
2022/03/12 11:28:20;;;;;;;18.87;7.20;;;14.90;72.10;;;;;;5056086;28;20625;-78
2022/03/12 11:30:46;;;;;;;12.37;6.50;;;15.30;71.80;;;;;;5054528;28;20177;-79
2022/03/12 11:33:14;;;;;;;11.50;7.10;;;15.90;70.40;;;;;;5054244;28;20177;-78
2022/03/12 11:35:44;;;;;;;14.10;6.30;;;15.90;70.30;;;;;;5054450;28;20177;-78
2022/03/12 11:38:18;;;;;;;9.33;5.90;;;16.30;70.20;;;;;;5053943;28;20730;-78
2022/03/12 11:40:47;;;;;;;9.57;6.27;;;16.90;69.40;;;;;;5054143;28;20202;-78
2022/03/12 11:43:24;;;;;;;10.13;5.87;;;17.20;68.30;;;;;;5054522;28;20204;-77
2022/03/12 11:45:53;;;;;;;11.63;6.10;;;16.90;68.40;;;;;;5054371;28;20204;-78
2022/03/12 11:48:20;;;;;;;11.63;7.00;;;16.80;69.60;;;;;;5054949;28;20220;-77
2022/03/12 11:50:46;;;;;;;8.67;5.70;;;16.50;70.10;;;;;;5054296;28;20207;-78
2022/03/12 11:53:17;;;;;;;9.57;6.03;;;16.40;70.80;;;;;;5053507;28;20185;-78
2022/03/12 11:55:47;;;;;;;12.43;7.03;;;16.60;71.60;;;;;;5055855;28;20178;-77
2022/03/12 11:58:13;;;;;;;10.80;6.13;;;16.70;71.60;;;;;;5055701;28;20205;-79
2022/03/12 12:00:38;;;;;;;10.50;5.80;;;16.80;71.10;;;;;;5057856;28;20255;-80
2022/03/12 12:03:04;;;;;;;9.80;6.23;;;16.50;70.60;;;;;;5055591;28;20630;-78
2022/03/12 12:05:30;;;;;;;11.53;6.13;;;16.70;70.00;;;;;;5057292;28;20209;-79
2022/03/12 12:07:56;;;;;;;10.20;6.27;;;16.30;70.60;;;;;;5056999;28;20197;-80
2022/03/12 12:10:29;;;;;;;13.53;6.47;;;16.30;70.70;;;;;;5057873;28;20223;-80
2022/03/12 12:12:56;;;;;;;13.23;5.77;;;16.90;69.20;;;;;;5057481;28;20204;-79
2022/03/12 12:15:31;;;;;;;8.77;5.83;;;17.50;67.90;;;;;;5056893;28;20641;-79
2022/03/12 12:17:57;;;;;;;11.17;6.60;;;18.00;66.50;;;;;;5057529;28;20196;-79
2022/03/12 12:20:23;;;;;;;8.50;6.17;;;17.40;69.30;;;;;;5058672;28;20177;-79
2022/03/12 12:22:50;;;;;;;12.50;6.17;;;17.40;69.90;;;;;;5056670;28;20250;-80
2022/03/12 12:25:18;;;;;;;9.83;5.50;;;17.40;70.30;;;;;;5056723;28;20196;-79
2022/03/12 12:27:48;;;;;;;11.20;6.00;;;17.20;69.70;;;;;;5057343;28;20180;-80
2022/03/12 12:30:27;;;;;;;8.87;6.27;;;17.20;69.90;;;;;;5062398;28;20197;-81
2022/03/12 12:32:53;;;;;;;10.07;5.83;;;16.70;69.00;;;;;;5062563;28;20170;-80
2022/03/12 12:35:20;;;;;;;10.37;5.67;;;16.70;70.30;;;;;;5056844;28;20184;-80
2022/03/12 12:37:46;;;;;;;9.83;6.43;;;17.40;70.00;;;;;;5057528;28;20201;-81
2022/03/12 12:40:24;;;;;;;13.40;6.37;;;17.00;69.70;;;;;;5059259;28;20239;-80
2022/03/12 12:42:51;;;;;;;11.47;5.80;;;16.60;70.60;;;;;;5058037;28;20188;-80
2022/03/12 12:45:23;;;;;;;6.67;5.10;;;16.60;70.50;;;;;;5056387;28;20242;-80
2022/03/12 12:48:14;;;;;;;7.70;5.10;;;16.50;69.20;;;;;;5056568;28;20189;-80
2022/03/12 12:50:41;;;;;;;6.60;4.70;;;16.40;70.20;;;;;;5036336;28;20175;-80